sensor_id;sensor_type;location;lat;lon;timestamp;temperature;humidity
72952;HTU21D;61102;51.956;5.878;2023-02-28T00:01:25;5.07;49.25
72952;HTU21D;61102;51.956;5.878;2023-02-28T00:03:51;5.13;49.21
72952;HTU21D;61102;51.956;5.878;2023-02-28T00:09:28;5.25;49.08
72952;HTU21D;61102;51.956;5.878;2023-02-28T00:11:54;5.34;49.05
72952;HTU21D;61102;51.956;5.878;2023-02-28T00:14:20;5.43;49.01
72952;HTU21D;61102;51.956;5.878;2023-02-28T00:19:51;5.57;48.91
72952;HTU21D;61102;51.956;5.878;2023-02-28T00:22:19;5.57;48.99
72952;HTU21D;61102;51.956;5.878;2023-02-28T00:24:45;6.02;48.30
72952;HTU21D;61102;51.956;5.878;2023-02-28T00:27:11;5.81;48.83
72952;HTU21D;61102;51.956;5.878;2023-02-28T00:29:37;5.77;49.56
72952;HTU21D;61102;51.956;5.878;2023-02-28T00:32:04;5.80;49.84
72952;HTU21D;61102;51.956;5.878;2023-02-28T00:34:36;5.86;50.22
72952;HTU21D;61102;51.956;5.878;2023-02-28T00:37:05;5.93;50.04
72952;HTU21D;61102;51.956;5.878;2023-02-28T00:39:36;5.99;50.16
72952;HTU21D;61102;51.956;5.878;2023-02-28T00:42:03;6.08;50.08
72952;HTU21D;61102;51.956;5.878;2023-02-28T00:44:30;6.12;50.11
72952;HTU21D;61102;51.956;5.878;2023-02-28T00:46:56;6.19;50.03
72952;HTU21D;61102;51.956;5.878;2023-02-28T00:49:25;6.25;50.00
72952;HTU21D;61102;51.956;5.878;2023-02-28T00:51:52;6.29;49.94
72952;HTU21D;61102;51.956;5.878;2023-02-28T00:54:19;6.35;49.95
72952;HTU21D;61102;51.956;5.878;2023-02-28T00:56:47;6.38;50.02
72952;HTU21D;61102;51.956;5.878;2023-02-28T00:59:15;6.42;50.11
72952;HTU21D;61102;51.956;5.878;2023-02-28T01:01:41;6.48;50.08
72952;HTU21D;61102;51.956;5.878;2023-02-28T01:04:12;6.51;50.15
72952;HTU21D;61102;51.956;5.878;2023-02-28T01:06:38;6.56;49.98
72952;HTU21D;61102;51.956;5.878;2023-02-28T01:09:05;6.61;49.92
72952;HTU21D;61102;51.956;5.878;2023-02-28T01:11:32;6.67;49.85
72952;HTU21D;61102;51.956;5.878;2023-02-28T01:13:59;6.72;49.78
72952;HTU21D;61102;51.956;5.878;2023-02-28T01:16:25;6.74;49.70
72952;HTU21D;61102;51.956;5.878;2023-02-28T01:18:52;6.79;49.63
72952;HTU21D;61102;51.956;5.878;2023-02-28T01:21:20;6.81;49.57
72952;HTU21D;61102;51.956;5.878;2023-02-28T01:23:47;6.85;49.43
72952;HTU21D;61102;51.956;5.878;2023-02-28T01:26:14;6.89;49.37
72952;HTU21D;61102;51.956;5.878;2023-02-28T01:28:41;6.91;49.32
72952;HTU21D;61102;51.956;5.878;2023-02-28T01:31:08;6.93;49.34
72952;HTU21D;61102;51.956;5.878;2023-02-28T01:33:37;6.97;49.23
72952;HTU21D;61102;51.956;5.878;2023-02-28T01:36:24;7.08;49.37
72952;HTU21D;61102;51.956;5.878;2023-02-28T01:38:50;7.08;49.03
72952;HTU21D;61102;51.956;5.878;2023-02-28T01:41:28;7.10;49.22
72952;HTU21D;61102;51.956;5.878;2023-02-28T01:43:58;7.10;49.10
72952;HTU21D;61102;51.956;5.878;2023-02-28T01:46:24;7.13;48.96
72952;HTU21D;61102;51.956;5.878;2023-02-28T01:49:17;7.25;49.04
72952;HTU21D;61102;51.956;5.878;2023-02-28T01:51:49;7.17;49.04
72952;HTU21D;61102;51.956;5.878;2023-02-28T01:54:31;7.18;49.15
72952;HTU21D;61102;51.956;5.878;2023-02-28T01:57:10;7.20;49.10
72952;HTU21D;61102;51.956;5.878;2023-02-28T01:59:42;7.18;49.04
72952;HTU21D;61102;51.956;5.878;2023-02-28T02:02:13;7.16;48.99
72952;HTU21D;61102;51.956;5.878;2023-02-28T02:04:50;7.18;49.19
72952;HTU21D;61102;51.956;5.878;2023-02-28T02:07:18;7.16;49.01
72952;HTU21D;61102;51.956;5.878;2023-02-28T02:09:45;7.14;49.07
72952;HTU21D;61102;51.956;5.878;2023-02-28T02:15:12;7.24;49.12
72952;HTU21D;61102;51.956;5.878;2023-02-28T02:17:42;7.22;48.95
72952;HTU21D;61102;51.956;5.878;2023-02-28T02:23:38;7.28;49.04
72952;HTU21D;61102;51.956;5.878;2023-02-28T02:29:54;7.29;49.02
72952;HTU21D;61102;51.956;5.878;2023-02-28T02:43:52;7.08;47.46
72952;HTU21D;61102;51.956;5.878;2023-02-28T02:46:33;7.09;47.31
72952;HTU21D;61102;51.956;5.878;2023-02-28T02:49:03;7.10;47.32
72952;HTU21D;61102;51.956;5.878;2023-02-28T02:51:32;7.11;47.19
72952;HTU21D;61102;51.956;5.878;2023-02-28T02:54:19;7.18;47.35
72952;HTU21D;61102;51.956;5.878;2023-02-28T02:56:47;7.12;47.07
72952;HTU21D;61102;51.956;5.878;2023-02-28T02:59:15;7.54;46.28
72952;HTU21D;61102;51.956;5.878;2023-02-28T03:01:53;7.25;46.64
72952;HTU21D;61102;51.956;5.878;2023-02-28T03:04:22;7.16;46.68
72952;HTU21D;61102;51.956;5.878;2023-02-28T03:06:51;7.14;46.56
72952;HTU21D;61102;51.956;5.878;2023-02-28T03:09:25;7.14;46.60
72952;HTU21D;61102;51.956;5.878;2023-02-28T03:11:54;7.13;46.42
72952;HTU21D;61102;51.956;5.878;2023-02-28T03:25:42;7.16;46.32
72952;HTU21D;61102;51.956;5.878;2023-02-28T03:33:46;7.17;46.16
72952;HTU21D;61102;51.956;5.878;2023-02-28T03:36:28;7.17;45.86
72952;HTU21D;61102;51.956;5.878;2023-02-28T03:39:02;7.16;45.93
72952;HTU21D;61102;51.956;5.878;2023-02-28T03:41:36;7.20;45.94
72952;HTU21D;61102;51.956;5.878;2023-02-28T03:44:14;7.18;45.71
72952;HTU21D;61102;51.956;5.878;2023-02-28T03:47:08;7.24;45.61
72952;HTU21D;61102;51.956;5.878;2023-02-28T03:49:40;7.16;45.42
72952;HTU21D;61102;51.956;5.878;2023-02-28T03:52:09;7.50;44.56
72952;HTU21D;61102;51.956;5.878;2023-02-28T03:54:47;7.20;45.08
72952;HTU21D;61102;51.956;5.878;2023-02-28T03:57:35;7.18;45.12
72952;HTU21D;61102;51.956;5.878;2023-02-28T04:00:25;7.10;45.30
72952;HTU21D;61102;51.956;5.878;2023-02-28T04:02:54;7.03;45.07
72952;HTU21D;61102;51.956;5.878;2023-02-28T04:05:21;7.02;45.06
72952;HTU21D;61102;51.956;5.878;2023-02-28T04:07:47;7.02;45.01
72952;HTU21D;61102;51.956;5.878;2023-02-28T04:10:14;7.01;45.11
72952;HTU21D;61102;51.956;5.878;2023-02-28T04:12:41;7.04;45.15
72952;HTU21D;61102;51.956;5.878;2023-02-28T04:15:07;7.07;45.20
72952;HTU21D;61102;51.956;5.878;2023-02-28T04:17:33;7.09;45.18
72952;HTU21D;61102;51.956;5.878;2023-02-28T04:19:59;7.10;45.23
72952;HTU21D;61102;51.956;5.878;2023-02-28T04:22:29;7.09;45.25
72952;HTU21D;61102;51.956;5.878;2023-02-28T04:24:56;7.11;45.02
72952;HTU21D;61102;51.956;5.878;2023-02-28T04:27:22;7.10;44.92
72952;HTU21D;61102;51.956;5.878;2023-02-28T04:29:48;7.09;44.80
72952;HTU21D;61102;51.956;5.878;2023-02-28T04:32:14;7.08;44.91
72952;HTU21D;61102;51.956;5.878;2023-02-28T04:34:40;7.09;44.83
72952;HTU21D;61102;51.956;5.878;2023-02-28T04:37:06;7.10;44.61
72952;HTU21D;61102;51.956;5.878;2023-02-28T04:39:35;7.09;44.34
72952;HTU21D;61102;51.956;5.878;2023-02-28T04:42:03;7.07;43.89
72952;HTU21D;61102;51.956;5.878;2023-02-28T04:44:29;7.08;43.46
72952;HTU21D;61102;51.956;5.878;2023-02-28T04:46:55;7.08;43.25
72952;HTU21D;61102;51.956;5.878;2023-02-28T04:49:21;7.07;43.33
72952;HTU21D;61102;51.956;5.878;2023-02-28T04:51:47;7.05;42.97
72952;HTU21D;61102;51.956;5.878;2023-02-28T04:54:13;7.03;42.55
72952;HTU21D;61102;51.956;5.878;2023-02-28T04:56:39;6.99;42.87
72952;HTU21D;61102;51.956;5.878;2023-02-28T04:59:05;6.97;42.78
72952;HTU21D;61102;51.956;5.878;2023-02-28T05:01:33;6.94;43.02
72952;HTU21D;61102;51.956;5.878;2023-02-28T05:04:01;6.90;43.26
72952;HTU21D;61102;51.956;5.878;2023-02-28T05:06:30;6.89;43.37
72952;HTU21D;61102;51.956;5.878;2023-02-28T05:08:56;6.87;43.58
72952;HTU21D;61102;51.956;5.878;2023-02-28T05:13:52;6.84;44.03
72952;HTU21D;61102;51.956;5.878;2023-02-28T05:16:19;6.82;44.17
72952;HTU21D;61102;51.956;5.878;2023-02-28T05:18:45;6.82;44.33
72952;HTU21D;61102;51.956;5.878;2023-02-28T05:23:58;6.76;44.80
72952;HTU21D;61102;51.956;5.878;2023-02-28T05:26:24;6.78;44.85
72952;HTU21D;61102;51.956;5.878;2023-02-28T05:28:51;6.78;44.96
72952;HTU21D;61102;51.956;5.878;2023-02-28T05:31:17;6.80;45.03
72952;HTU21D;61102;51.956;5.878;2023-02-28T05:33:43;6.81;45.11
72952;HTU21D;61102;51.956;5.878;2023-02-28T05:36:10;6.83;45.19
72952;HTU21D;61102;51.956;5.878;2023-02-28T05:38:36;6.83;45.24
72952;HTU21D;61102;51.956;5.878;2023-02-28T05:41:09;6.85;45.41
72952;HTU21D;61102;51.956;5.878;2023-02-28T05:43:36;6.85;45.47
72952;HTU21D;61102;51.956;5.878;2023-02-28T05:46:04;6.81;45.67
72952;HTU21D;61102;51.956;5.878;2023-02-28T05:48:32;6.79;45.74
72952;HTU21D;61102;51.956;5.878;2023-02-28T05:50:58;6.78;45.89
72952;HTU21D;61102;51.956;5.878;2023-02-28T05:53:24;6.75;45.98
72952;HTU21D;61102;51.956;5.878;2023-02-28T05:55:50;6.72;46.07
72952;HTU21D;61102;51.956;5.878;2023-02-28T05:58:16;6.72;46.09
72952;HTU21D;61102;51.956;5.878;2023-02-28T06:00:43;6.75;46.05
72952;HTU21D;61102;51.956;5.878;2023-02-28T06:03:08;6.76;46.12
72952;HTU21D;61102;51.956;5.878;2023-02-28T06:05:35;6.73;46.21
72952;HTU21D;61102;51.956;5.878;2023-02-28T06:08:01;6.72;46.26
72952;HTU21D;61102;51.956;5.878;2023-02-28T06:10:27;6.72;46.28
72952;HTU21D;61102;51.956;5.878;2023-02-28T06:12:53;6.74;46.29
72952;HTU21D;61102;51.956;5.878;2023-02-28T06:15:19;6.80;46.21
72952;HTU21D;61102;51.956;5.878;2023-02-28T06:17:46;6.87;46.15
72952;HTU21D;61102;51.956;5.878;2023-02-28T06:20:12;6.84;46.36
72952;HTU21D;61102;51.956;5.878;2023-02-28T06:22:39;6.75;46.54
72952;HTU21D;61102;51.956;5.878;2023-02-28T06:25:06;6.74;46.62
72952;HTU21D;61102;51.956;5.878;2023-02-28T06:27:33;6.78;46.55
72952;HTU21D;61102;51.956;5.878;2023-02-28T06:29:59;6.87;46.41
72952;HTU21D;61102;51.956;5.878;2023-02-28T06:32:25;6.95;46.36
72952;HTU21D;61102;51.956;5.878;2023-02-28T06:34:51;7.00;46.33
72952;HTU21D;61102;51.956;5.878;2023-02-28T06:37:17;7.03;46.31
72952;HTU21D;61102;51.956;5.878;2023-02-28T06:39:44;7.07;46.26
72952;HTU21D;61102;51.956;5.878;2023-02-28T06:42:10;7.11;46.25
72952;HTU21D;61102;51.956;5.878;2023-02-28T06:44:36;7.14;46.22
72952;HTU21D;61102;51.956;5.878;2023-02-28T06:47:04;7.11;46.11
72952;HTU21D;61102;51.956;5.878;2023-02-28T06:49:31;7.10;46.09
72952;HTU21D;61102;51.956;5.878;2023-02-28T06:51:58;7.13;46.06
72952;HTU21D;61102;51.956;5.878;2023-02-28T06:54:24;7.16;45.99
72952;HTU21D;61102;51.956;5.878;2023-02-28T06:56:50;7.25;45.89
72952;HTU21D;61102;51.956;5.878;2023-02-28T07:02:45;7.34;45.51
72952;HTU21D;61102;51.956;5.878;2023-02-28T07:05:12;7.33;45.29
72952;HTU21D;61102;51.956;5.878;2023-02-28T07:07:39;7.32;45.09
72952;HTU21D;61102;51.956;5.878;2023-02-28T07:10:10;7.30;44.80
72952;HTU21D;61102;51.956;5.878;2023-02-28T07:12:37;7.31;44.85
72952;HTU21D;61102;51.956;5.878;2023-02-28T07:15:05;7.33;44.58
72952;HTU21D;61102;51.956;5.878;2023-02-28T07:17:31;7.35;44.45
72952;HTU21D;61102;51.956;5.878;2023-02-28T07:19:57;7.39;44.01
72952;HTU21D;61102;51.956;5.878;2023-02-28T07:22:23;7.41;43.87
72952;HTU21D;61102;51.956;5.878;2023-02-28T07:24:50;7.43;43.58
72952;HTU21D;61102;51.956;5.878;2023-02-28T07:27:17;7.42;43.33
72952;HTU21D;61102;51.956;5.878;2023-02-28T07:29:49;7.41;43.32
72952;HTU21D;61102;51.956;5.878;2023-02-28T07:32:16;7.39;43.22
72952;HTU21D;61102;51.956;5.878;2023-02-28T07:34:44;7.35;42.94
72952;HTU21D;61102;51.956;5.878;2023-02-28T07:37:11;7.33;42.48
72952;HTU21D;61102;51.956;5.878;2023-02-28T07:39:37;7.29;42.64
72952;HTU21D;61102;51.956;5.878;2023-02-28T07:42:06;7.28;42.93
72952;HTU21D;61102;51.956;5.878;2023-02-28T07:44:35;7.32;42.76
72952;HTU21D;61102;51.956;5.878;2023-02-28T07:47:09;7.37;42.71
72952;HTU21D;61102;51.956;5.878;2023-02-28T07:49:36;7.41;42.42
72952;HTU21D;61102;51.956;5.878;2023-02-28T07:52:04;7.44;42.42
72952;HTU21D;61102;51.956;5.878;2023-02-28T07:54:31;7.46;42.16
72952;HTU21D;61102;51.956;5.878;2023-02-28T07:56:57;7.45;41.67
72952;HTU21D;61102;51.956;5.878;2023-02-28T07:59:23;7.42;41.65
72952;HTU21D;61102;51.956;5.878;2023-02-28T08:01:49;7.40;41.90
72952;HTU21D;61102;51.956;5.878;2023-02-28T08:04:17;7.37;42.06
72952;HTU21D;61102;51.956;5.878;2023-02-28T08:06:43;7.37;42.16
72952;HTU21D;61102;51.956;5.878;2023-02-28T08:09:09;7.34;42.13
72952;HTU21D;61102;51.956;5.878;2023-02-28T08:11:36;7.35;42.18
72952;HTU21D;61102;51.956;5.878;2023-02-28T08:14:02;7.38;42.21
72952;HTU21D;61102;51.956;5.878;2023-02-28T08:16:29;7.41;42.03
72952;HTU21D;61102;51.956;5.878;2023-02-28T08:18:56;7.42;42.15
72952;HTU21D;61102;51.956;5.878;2023-02-28T08:21:22;7.48;41.97
72952;HTU21D;61102;51.956;5.878;2023-02-28T08:23:49;7.52;41.75
72952;HTU21D;61102;51.956;5.878;2023-02-28T08:26:16;7.58;41.49
72952;HTU21D;61102;51.956;5.878;2023-02-28T08:28:43;7.64;41.10
72952;HTU21D;61102;51.956;5.878;2023-02-28T08:31:12;7.71;40.95
72952;HTU21D;61102;51.956;5.878;2023-02-28T08:33:39;7.77;40.52
72952;HTU21D;61102;51.956;5.878;2023-02-28T08:36:07;7.84;40.07
72952;HTU21D;61102;51.956;5.878;2023-02-28T08:38:34;7.88;39.90
72952;HTU21D;61102;51.956;5.878;2023-02-28T08:41:02;7.97;39.85
72952;HTU21D;61102;51.956;5.878;2023-02-28T08:43:28;8.03;39.05
72952;HTU21D;61102;51.956;5.878;2023-02-28T08:45:55;8.13;39.00
72952;HTU21D;61102;51.956;5.878;2023-02-28T08:48:26;8.16;38.34
72952;HTU21D;61102;51.956;5.878;2023-02-28T08:51:04;8.27;37.62
72952;HTU21D;61102;51.956;5.878;2023-02-28T08:53:31;8.31;36.76
72952;HTU21D;61102;51.956;5.878;2023-02-28T08:56:08;8.36;36.47
72952;HTU21D;61102;51.956;5.878;2023-02-28T08:58:35;8.42;36.28
72952;HTU21D;61102;51.956;5.878;2023-02-28T09:01:14;8.52;36.30
72952;HTU21D;61102;51.956;5.878;2023-02-28T09:03:41;8.59;35.06
72952;HTU21D;61102;51.956;5.878;2023-02-28T09:06:08;8.66;34.73
72952;HTU21D;61102;51.956;5.878;2023-02-28T09:08:35;8.80;34.62
72952;HTU21D;61102;51.956;5.878;2023-02-28T09:11:02;8.86;32.60
72952;HTU21D;61102;51.956;5.878;2023-02-28T09:13:29;8.92;33.07
72952;HTU21D;61102;51.956;5.878;2023-02-28T09:15:59;9.04;33.04
72952;HTU21D;61102;51.956;5.878;2023-02-28T09:18:26;9.20;32.75
72952;HTU21D;61102;51.956;5.878;2023-02-28T09:20:52;9.32;31.57
72952;HTU21D;61102;51.956;5.878;2023-02-28T09:23:19;9.39;31.89
72952;HTU21D;61102;51.956;5.878;2023-02-28T09:25:50;9.46;31.45
72952;HTU21D;61102;51.956;5.878;2023-02-28T09:28:17;9.52;30.92
72952;HTU21D;61102;51.956;5.878;2023-02-28T09:30:49;9.61;31.07
72952;HTU21D;61102;51.956;5.878;2023-02-28T09:33:16;9.65;30.61
72952;HTU21D;61102;51.956;5.878;2023-02-28T09:35:43;9.71;30.29
72952;HTU21D;61102;51.956;5.878;2023-02-28T09:38:10;9.77;30.55
72952;HTU21D;61102;51.956;5.878;2023-02-28T09:41:03;9.95;29.72
72952;HTU21D;61102;51.956;5.878;2023-02-28T09:43:35;9.92;29.38
72952;HTU21D;61102;51.956;5.878;2023-02-28T09:48:52;10.06;29.92
72952;HTU21D;61102;51.956;5.878;2023-02-28T09:54:03;10.18;29.10
72952;HTU21D;61102;51.956;5.878;2023-02-28T09:56:36;10.23;29.45
72952;HTU21D;61102;51.956;5.878;2023-02-28T10:02:15;10.42;28.36
72952;HTU21D;61102;51.956;5.878;2023-02-28T10:04:50;10.33;29.18
72952;HTU21D;61102;51.956;5.878;2023-02-28T10:10:28;10.45;29.29
72952;HTU21D;61102;51.956;5.878;2023-02-28T10:12:57;10.46;29.67
72952;HTU21D;61102;51.956;5.878;2023-02-28T10:15:27;10.53;29.66
72952;HTU21D;61102;51.956;5.878;2023-02-28T10:17:58;10.49;28.90
72952;HTU21D;61102;51.956;5.878;2023-02-28T10:20:26;10.44;29.14
72952;HTU21D;61102;51.956;5.878;2023-02-28T10:23:16;10.58;28.22
72952;HTU21D;61102;51.956;5.878;2023-02-28T10:25:48;10.42;27.74
72952;HTU21D;61102;51.956;5.878;2023-02-28T10:28:17;10.30;28.09
72952;HTU21D;61102;51.956;5.878;2023-02-28T10:30:49;10.31;28.41
72952;HTU21D;61102;51.956;5.878;2023-02-28T10:33:33;10.42;27.88
72952;HTU21D;61102;51.956;5.878;2023-02-28T10:36:03;10.34;28.03
72952;HTU21D;61102;51.956;5.878;2023-02-28T10:38:35;10.34;28.22
72952;HTU21D;61102;51.956;5.878;2023-02-28T10:41:14;10.44;28.02
72952;HTU21D;61102;51.956;5.878;2023-02-28T10:43:42;10.45;28.30
72952;HTU21D;61102;51.956;5.878;2023-02-28T10:49:00;10.64;28.71
72952;HTU21D;61102;51.956;5.878;2023-02-28T10:51:34;10.72;28.26
72952;HTU21D;61102;51.956;5.878;2023-02-28T10:54:03;10.72;28.27
72952;HTU21D;61102;51.956;5.878;2023-02-28T10:56:30;10.80;27.84
72952;HTU21D;61102;51.956;5.878;2023-02-28T11:07:10;10.85;28.16
72952;HTU21D;61102;51.956;5.878;2023-02-28T11:09:46;10.79;28.04
72952;HTU21D;61102;51.956;5.878;2023-02-28T11:12:23;10.80;27.52
72952;HTU21D;61102;51.956;5.878;2023-02-28T11:15:04;10.81;28.09
72952;HTU21D;61102;51.956;5.878;2023-02-28T11:17:32;10.80;28.37
72952;HTU21D;61102;51.956;5.878;2023-02-28T11:20:02;10.84;28.50
72952;HTU21D;61102;51.956;5.878;2023-02-28T11:22:32;10.92;27.84
72952;HTU21D;61102;51.956;5.878;2023-02-28T11:25:02;10.87;27.23
72952;HTU21D;61102;51.956;5.878;2023-02-28T11:30:00;10.80;27.62
72952;HTU21D;61102;51.956;5.878;2023-02-28T11:32:30;10.85;27.91
72952;HTU21D;61102;51.956;5.878;2023-02-28T11:35:02;10.89;27.75
72952;HTU21D;61102;51.956;5.878;2023-02-28T11:37:30;10.89;27.30
72952;HTU21D;61102;51.956;5.878;2023-02-28T11:39:57;10.89;27.49
72952;HTU21D;61102;51.956;5.878;2023-02-28T11:55:55;11.24;26.88
72952;HTU21D;61102;51.956;5.878;2023-02-28T11:58:41;11.23;25.75
72952;HTU21D;61102;51.956;5.878;2023-02-28T12:04:21;11.23;25.94
72952;HTU21D;61102;51.956;5.878;2023-02-28T12:09:46;11.10;26.09
72952;HTU21D;61102;51.956;5.878;2023-02-28T12:20:43;11.15;26.68
72952;HTU21D;61102;51.956;5.878;2023-02-28T12:23:36;11.12;26.00
72952;HTU21D;61102;51.956;5.878;2023-02-28T12:29:17;11.26;26.59
72952;HTU21D;61102;51.956;5.878;2023-02-28T12:31:49;11.27;26.30
72952;HTU21D;61102;51.956;5.878;2023-02-28T12:34:20;11.23;25.62
72952;HTU21D;61102;51.956;5.878;2023-02-28T12:36:48;11.15;25.34
72952;HTU21D;61102;51.956;5.878;2023-02-28T12:39:31;11.23;26.14
72952;HTU21D;61102;51.956;5.878;2023-02-28T12:42:03;11.26;26.26
72952;HTU21D;61102;51.956;5.878;2023-02-28T12:44:35;11.39;26.23
72952;HTU21D;61102;51.956;5.878;2023-02-28T12:47:12;11.53;25.62
72952;HTU21D;61102;51.956;5.878;2023-02-28T12:52:11;12.43;24.20
72952;HTU21D;61102;51.956;5.878;2023-02-28T12:55:00;12.46;23.78
72952;HTU21D;61102;51.956;5.878;2023-02-28T12:57:42;12.53;23.44
72952;HTU21D;61102;51.956;5.878;2023-02-28T13:00:10;12.49;23.33
72952;HTU21D;61102;51.956;5.878;2023-02-28T13:05:39;12.28;24.43
72952;HTU21D;61102;51.956;5.878;2023-02-28T13:10:50;12.16;24.13
72952;HTU21D;61102;51.956;5.878;2023-02-28T13:13:26;12.13;23.66
72952;HTU21D;61102;51.956;5.878;2023-02-28T13:16:06;12.18;23.74
72952;HTU21D;61102;51.956;5.878;2023-02-28T13:18:39;12.63;22.79
72952;HTU21D;61102;51.956;5.878;2023-02-28T13:21:28;12.86;23.02
72952;HTU21D;61102;51.956;5.878;2023-02-28T13:24:08;12.90;22.79
72952;HTU21D;61102;51.956;5.878;2023-02-28T13:29:24;13.21;21.92
72952;HTU21D;61102;51.956;5.878;2023-02-28T13:34:32;13.83;21.38
72952;HTU21D;61102;51.956;5.878;2023-02-28T13:47:32;16.39;19.11
72952;HTU21D;61102;51.956;5.878;2023-02-28T13:50:19;16.81;18.36
72952;HTU21D;61102;51.956;5.878;2023-02-28T13:58:37;17.25;16.77
72952;HTU21D;61102;51.956;5.878;2023-02-28T14:04:21;17.48;17.26
72952;HTU21D;61102;51.956;5.878;2023-02-28T14:06:56;17.83;17.31
72952;HTU21D;61102;51.956;5.878;2023-02-28T14:09:40;18.19;16.64
72952;HTU21D;61102;51.956;5.878;2023-02-28T14:18:01;15.43;19.22
72952;HTU21D;61102;51.956;5.878;2023-02-28T14:20:31;14.37;20.70
72952;HTU21D;61102;51.956;5.878;2023-02-28T14:23:09;13.55;21.99
72952;HTU21D;61102;51.956;5.878;2023-02-28T14:31:24;11.99;23.92
72952;HTU21D;61102;51.956;5.878;2023-02-28T14:36:36;11.48;24.59
72952;HTU21D;61102;51.956;5.878;2023-02-28T14:39:07;11.28;24.90
72952;HTU21D;61102;51.956;5.878;2023-02-28T14:41:39;11.13;25.11
72952;HTU21D;61102;51.956;5.878;2023-02-28T14:44:18;11.03;25.50
72952;HTU21D;61102;51.956;5.878;2023-02-28T14:46:48;10.92;25.68
72952;HTU21D;61102;51.956;5.878;2023-02-28T14:52:09;10.80;26.09
72952;HTU21D;61102;51.956;5.878;2023-02-28T14:54:39;10.78;26.19
72952;HTU21D;61102;51.956;5.878;2023-02-28T14:57:06;10.72;26.01
72952;HTU21D;61102;51.956;5.878;2023-02-28T14:59:34;10.63;26.23
72952;HTU21D;61102;51.956;5.878;2023-02-28T15:02:20;10.63;26.25
72952;HTU21D;61102;51.956;5.878;2023-02-28T15:04:58;10.54;26.55
72952;HTU21D;61102;51.956;5.878;2023-02-28T15:07:25;10.46;26.39
72952;HTU21D;61102;51.956;5.878;2023-02-28T15:15:32;10.38;26.43
72952;HTU21D;61102;51.956;5.878;2023-02-28T15:18:03;10.34;26.62
72952;HTU21D;61102;51.956;5.878;2023-02-28T15:20:32;10.30;26.65
72952;HTU21D;61102;51.956;5.878;2023-02-28T15:22:59;10.33;26.88
72952;HTU21D;61102;51.956;5.878;2023-02-28T15:25:25;10.34;27.05
72952;HTU21D;61102;51.956;5.878;2023-02-28T15:27:55;10.35;27.00
72952;HTU21D;61102;51.956;5.878;2023-02-28T15:30:26;10.31;26.92
72952;HTU21D;61102;51.956;5.878;2023-02-28T15:33:31;10.40;26.78
72952;HTU21D;61102;51.956;5.878;2023-02-28T15:38:34;10.21;27.00
72952;HTU21D;61102;51.956;5.878;2023-02-28T15:41:01;10.20;27.19
72952;HTU21D;61102;51.956;5.878;2023-02-28T15:43:32;10.18;27.55
72952;HTU21D;61102;51.956;5.878;2023-02-28T15:46:14;10.18;27.74
72952;HTU21D;61102;51.956;5.878;2023-02-28T15:48:47;10.12;27.74
72952;HTU21D;61102;51.956;5.878;2023-02-28T15:51:18;10.10;27.84
72952;HTU21D;61102;51.956;5.878;2023-02-28T15:53:57;10.12;27.91
72952;HTU21D;61102;51.956;5.878;2023-02-28T15:56:30;10.12;27.90
72952;HTU21D;61102;51.956;5.878;2023-02-28T15:58:58;10.08;27.51
72952;HTU21D;61102;51.956;5.878;2023-02-28T16:01:31;10.03;27.69
72952;HTU21D;61102;51.956;5.878;2023-02-28T16:04:01;9.99;27.76
72952;HTU21D;61102;51.956;5.878;2023-02-28T16:06:37;9.98;28.02
72952;HTU21D;61102;51.956;5.878;2023-02-28T16:09:04;9.92;27.97
72952;HTU21D;61102;51.956;5.878;2023-02-28T16:11:33;9.90;28.23
72952;HTU21D;61102;51.956;5.878;2023-02-28T16:14:01;9.89;28.26
72952;HTU21D;61102;51.956;5.878;2023-02-28T16:16:27;9.86;28.28
72952;HTU21D;61102;51.956;5.878;2023-02-28T16:18:53;9.88;28.35
72952;HTU21D;61102;51.956;5.878;2023-02-28T16:21:19;9.86;28.29
72952;HTU21D;61102;51.956;5.878;2023-02-28T16:23:45;9.82;28.32
72952;HTU21D;61102;51.956;5.878;2023-02-28T16:26:19;9.80;28.55
72952;HTU21D;61102;51.956;5.878;2023-02-28T16:28:45;9.77;28.60
72952;HTU21D;61102;51.956;5.878;2023-02-28T16:31:12;9.70;28.75
72952;HTU21D;61102;51.956;5.878;2023-02-28T16:33:43;9.67;28.61
72952;HTU21D;61102;51.956;5.878;2023-02-28T16:36:19;9.67;28.94
72952;HTU21D;61102;51.956;5.878;2023-02-28T16:38:45;9.63;28.87
72952;HTU21D;61102;51.956;5.878;2023-02-28T16:41:21;9.61;29.03
72952;HTU21D;61102;51.956;5.878;2023-02-28T16:43:50;9.55;29.22
72952;HTU21D;61102;51.956;5.878;2023-02-28T16:46:17;9.54;29.16
72952;HTU21D;61102;51.956;5.878;2023-02-28T16:48:44;9.50;29.35
72952;HTU21D;61102;51.956;5.878;2023-02-28T16:51:14;9.49;29.58
72952;HTU21D;61102;51.956;5.878;2023-02-28T16:53:42;9.45;29.59
72952;HTU21D;61102;51.956;5.878;2023-02-28T16:56:17;9.44;29.87
72952;HTU21D;61102;51.956;5.878;2023-02-28T16:58:44;9.38;29.89
72952;HTU21D;61102;51.956;5.878;2023-02-28T17:01:10;9.35;30.07
72952;HTU21D;61102;51.956;5.878;2023-02-28T17:03:36;9.31;30.25
72952;HTU21D;61102;51.956;5.878;2023-02-28T17:06:04;9.24;30.42
72952;HTU21D;61102;51.956;5.878;2023-02-28T17:08:31;9.21;30.48
72952;HTU21D;61102;51.956;5.878;2023-02-28T17:10:58;9.17;30.65
72952;HTU21D;61102;51.956;5.878;2023-02-28T17:13:24;9.10;30.74
72952;HTU21D;61102;51.956;5.878;2023-02-28T17:15:50;9.08;30.83
72952;HTU21D;61102;51.956;5.878;2023-02-28T17:18:18;9.03;31.03
72952;HTU21D;61102;51.956;5.878;2023-02-28T17:20:48;8.96;31.15
72952;HTU21D;61102;51.956;5.878;2023-02-28T17:23:14;8.93;31.16
72952;HTU21D;61102;51.956;5.878;2023-02-28T17:25:40;8.89;31.25
72952;HTU21D;61102;51.956;5.878;2023-02-28T17:28:08;8.85;31.35
72952;HTU21D;61102;51.956;5.878;2023-02-28T17:30:34;9.17;30.90
72952;HTU21D;61102;51.956;5.878;2023-02-28T17:33:00;8.87;31.28
72952;HTU21D;61102;51.956;5.878;2023-02-28T17:35:27;8.72;31.60
72952;HTU21D;61102;51.956;5.878;2023-02-28T17:37:56;8.65;31.73
72952;HTU21D;61102;51.956;5.878;2023-02-28T17:40:23;8.59;31.90
72952;HTU21D;61102;51.956;5.878;2023-02-28T17:42:49;8.53;32.00
72952;HTU21D;61102;51.956;5.878;2023-02-28T17:45:18;8.49;32.12
72952;HTU21D;61102;51.956;5.878;2023-02-28T17:47:47;8.44;32.27
72952;HTU21D;61102;51.956;5.878;2023-02-28T17:50:16;8.39;32.35
72952;HTU21D;61102;51.956;5.878;2023-02-28T17:52:42;8.33;32.47
72952;HTU21D;61102;51.956;5.878;2023-02-28T17:55:09;8.28;32.60
72952;HTU21D;61102;51.956;5.878;2023-02-28T17:57:35;8.23;32.67
72952;HTU21D;61102;51.956;5.878;2023-02-28T18:00:01;8.19;32.74
72952;HTU21D;61102;51.956;5.878;2023-02-28T18:02:37;8.16;32.82
72952;HTU21D;61102;51.956;5.878;2023-02-28T18:05:03;8.12;32.89
72952;HTU21D;61102;51.956;5.878;2023-02-28T18:07:30;8.06;32.97
72952;HTU21D;61102;51.956;5.878;2023-02-28T18:09:56;8.03;33.03
72952;HTU21D;61102;51.956;5.878;2023-02-28T18:12:22;7.99;33.12
72952;HTU21D;61102;51.956;5.878;2023-02-28T18:14:48;7.94;33.19
72952;HTU21D;61102;51.956;5.878;2023-02-28T18:17:14;7.91;33.25
72952;HTU21D;61102;51.956;5.878;2023-02-28T18:19:41;7.86;33.37
72952;HTU21D;61102;51.956;5.878;2023-02-28T18:22:10;7.79;33.56
72952;HTU21D;61102;51.956;5.878;2023-02-28T18:24:36;7.77;33.55
72952;HTU21D;61102;51.956;5.878;2023-02-28T18:27:02;7.73;33.70
72952;HTU21D;61102;51.956;5.878;2023-02-28T18:29:29;7.71;33.79
72952;HTU21D;61102;51.956;5.878;2023-02-28T18:31:56;7.67;33.79